sensor_id;sensor_type;location;lat;lon;timestamp;P1;durP1;ratioP1;P2;durP2;ratioP2
84031;SDS011;74113;46.556;24.570;2024-02-04T00:01:27;20.00;;;9.40;;
84031;SDS011;74113;46.556;24.570;2024-02-04T00:03:56;21.40;;;12.50;;
84031;SDS011;74113;46.556;24.570;2024-02-04T00:06:25;16.60;;;10.50;;
84031;SDS011;74113;46.556;24.570;2024-02-04T00:08:54;16.70;;;9.50;;
84031;SDS011;74113;46.556;24.570;2024-02-04T00:11:22;18.30;;;9.90;;
84031;SDS011;74113;46.556;24.570;2024-02-04T00:13:51;19.50;;;10.60;;
84031;SDS011;74113;46.556;24.570;2024-02-04T00:16:20;16.30;;;8.60;;
84031;SDS011;74113;46.556;24.570;2024-02-04T00:18:48;23.30;;;12.40;;
84031;SDS011;74113;46.556;24.570;2024-02-04T00:21:17;14.00;;;9.30;;
84031;SDS011;74113;46.556;24.570;2024-02-04T00:23:46;17.50;;;9.30;;
84031;SDS011;74113;46.556;24.570;2024-02-04T00:26:15;24.50;;;13.40;;
84031;SDS011;74113;46.556;24.570;2024-02-04T00:28:43;20.90;;;12.10;;
84031;SDS011;74113;46.556;24.570;2024-02-04T00:31:12;24.60;;;11.10;;
84031;SDS011;74113;46.556;24.570;2024-02-04T00:33:40;20.80;;;11.60;;
84031;SDS011;74113;46.556;24.570;2024-02-04T00:36:09;20.70;;;12.50;;
84031;SDS011;74113;46.556;24.570;2024-02-04T00:38:38;26.50;;;14.20;;
84031;SDS011;74113;46.556;24.570;2024-02-04T00:41:06;25.40;;;12.20;;
84031;SDS011;74113;46.556;24.570;2024-02-04T00:43:35;23.00;;;12.30;;
84031;SDS011;74113;46.556;24.570;2024-02-04T00:46:03;20.50;;;11.10;;
84031;SDS011;74113;46.556;24.570;2024-02-04T00:48:33;17.30;;;9.20;;
84031;SDS011;74113;46.556;24.570;2024-02-04T00:51:01;20.80;;;11.40;;
84031;SDS011;74113;46.556;24.570;2024-02-04T00:53:30;15.60;;;9.00;;
84031;SDS011;74113;46.556;24.570;2024-02-04T00:56:02;17.40;;;12.10;;
84031;SDS011;74113;46.556;24.570;2024-02-04T00:58:31;24.60;;;16.50;;
84031;SDS011;74113;46.556;24.570;2024-02-04T01:01:00;15.10;;;9.40;;
84031;SDS011;74113;46.556;24.570;2024-02-04T01:03:30;19.20;;;9.30;;
84031;SDS011;74113;46.556;24.570;2024-02-04T01:06:00;23.30;;;10.80;;
84031;SDS011;74113;46.556;24.570;2024-02-04T01:08:29;16.40;;;9.20;;
84031;SDS011;74113;46.556;24.570;2024-02-04T01:10:58;21.10;;;12.40;;
84031;SDS011;74113;46.556;24.570;2024-02-04T01:13:27;15.60;;;9.00;;
84031;SDS011;74113;46.556;24.570;2024-02-04T01:15:56;19.80;;;10.70;;
84031;SDS011;74113;46.556;24.570;2024-02-04T01:18:24;17.40;;;12.10;;
84031;SDS011;74113;46.556;24.570;2024-02-04T01:20:53;18.00;;;8.60;;
84031;SDS011;74113;46.556;24.570;2024-02-04T01:23:22;17.40;;;9.20;;
84031;SDS011;74113;46.556;24.570;2024-02-04T01:25:51;18.30;;;10.10;;
84031;SDS011;74113;46.556;24.570;2024-02-04T01:30:48;19.20;;;10.00;;
84031;SDS011;74113;46.556;24.570;2024-02-04T01:33:17;17.90;;;9.60;;
84031;SDS011;74113;46.556;24.570;2024-02-04T01:35:45;18.60;;;9.50;;
84031;SDS011;74113;46.556;24.570;2024-02-04T01:38:14;15.60;;;9.40;;
84031;SDS011;74113;46.556;24.570;2024-02-04T01:40:42;24.20;;;13.00;;
84031;SDS011;74113;46.556;24.570;2024-02-04T01:43:11;21.60;;;11.10;;
84031;SDS011;74113;46.556;24.570;2024-02-04T01:45:39;19.40;;;9.20;;
84031;SDS011;74113;46.556;24.570;2024-02-04T01:48:08;20.00;;;11.30;;
84031;SDS011;74113;46.556;24.570;2024-02-04T01:50:37;18.20;;;9.10;;
84031;SDS011;74113;46.556;24.570;2024-02-04T01:55:33;15.50;;;8.70;;
84031;SDS011;74113;46.556;24.570;2024-02-04T01:58:02;16.60;;;8.60;;
84031;SDS011;74113;46.556;24.570;2024-02-04T02:00:32;15.90;;;8.70;;
84031;SDS011;74113;46.556;24.570;2024-02-04T02:03:01;18.80;;;9.50;;
84031;SDS011;74113;46.556;24.570;2024-02-04T02:05:32;23.00;;;12.10;;
84031;SDS011;74113;46.556;24.570;2024-02-04T02:08:00;21.40;;;11.20;;
84031;SDS011;74113;46.556;24.570;2024-02-04T02:10:29;27.60;;;15.90;;
84031;SDS011;74113;46.556;24.570;2024-02-04T02:13:17;27.50;;;16.80;;
84031;SDS011;74113;46.556;24.570;2024-02-04T02:15:52;20.20;;;10.30;;
84031;SDS011;74113;46.556;24.570;2024-02-04T02:18:27;21.40;;;11.70;;
84031;SDS011;74113;46.556;24.570;2024-02-04T02:24:02;22.30;;;10.30;;
84031;SDS011;74113;46.556;24.570;2024-02-04T02:26:31;18.50;;;11.30;;
84031;SDS011;74113;46.556;24.570;2024-02-04T02:29:01;28.90;;;15.80;;
84031;SDS011;74113;46.556;24.570;2024-02-04T02:31:30;21.90;;;12.10;;
84031;SDS011;74113;46.556;24.570;2024-02-04T02:34:14;26.70;;;16.70;;
84031;SDS011;74113;46.556;24.570;2024-02-04T02:40:06;24.80;;;16.00;;
84031;SDS011;74113;46.556;24.570;2024-02-04T02:42:39;20.80;;;12.20;;
84031;SDS011;74113;46.556;24.570;2024-02-04T02:45:11;20.00;;;10.00;;
84031;SDS011;74113;46.556;24.570;2024-02-04T02:47:41;23.10;;;12.20;;
84031;SDS011;74113;46.556;24.570;2024-02-04T02:50:12;22.00;;;12.50;;
84031;SDS011;74113;46.556;24.570;2024-02-04T02:52:42;18.20;;;9.90;;
84031;SDS011;74113;46.556;24.570;2024-02-04T02:55:10;20.70;;;10.40;;
84031;SDS011;74113;46.556;24.570;2024-02-04T02:57:38;17.00;;;9.90;;
84031;SDS011;74113;46.556;24.570;2024-02-04T03:00:07;23.70;;;13.50;;
84031;SDS011;74113;46.556;24.570;2024-02-04T03:02:37;20.60;;;10.10;;
84031;SDS011;74113;46.556;24.570;2024-02-04T03:05:05;16.80;;;9.60;;
84031;SDS011;74113;46.556;24.570;2024-02-04T03:07:34;17.70;;;8.40;;
84031;SDS011;74113;46.556;24.570;2024-02-04T03:10:03;15.80;;;8.80;;
84031;SDS011;74113;46.556;24.570;2024-02-04T03:12:32;23.20;;;13.00;;
84031;SDS011;74113;46.556;24.570;2024-02-04T03:15:01;14.90;;;9.80;;
84031;SDS011;74113;46.556;24.570;2024-02-04T03:17:30;14.60;;;10.80;;
84031;SDS011;74113;46.556;24.570;2024-02-04T03:19:59;16.20;;;11.20;;
84031;SDS011;74113;46.556;24.570;2024-02-04T03:22:28;18.10;;;9.90;;
84031;SDS011;74113;46.556;24.570;2024-02-04T03:24:57;17.30;;;10.70;;
84031;SDS011;74113;46.556;24.570;2024-02-04T03:27:25;18.90;;;9.50;;
84031;SDS011;74113;46.556;24.570;2024-02-04T03:29:54;17.90;;;8.90;;
84031;SDS011;74113;46.556;24.570;2024-02-04T03:32:22;16.30;;;8.60;;
84031;SDS011;74113;46.556;24.570;2024-02-04T03:34:51;17.20;;;9.60;;
84031;SDS011;74113;46.556;24.570;2024-02-04T03:37:21;20.00;;;10.00;;
84031;SDS011;74113;46.556;24.570;2024-02-04T03:42:17;14.80;;;8.90;;
84031;SDS011;74113;46.556;24.570;2024-02-04T03:44:47;15.70;;;8.40;;
84031;SDS011;74113;46.556;24.570;2024-02-04T03:47:16;19.00;;;10.10;;
84031;SDS011;74113;46.556;24.570;2024-02-04T03:52:13;10.80;;;6.80;;
84031;SDS011;74113;46.556;24.570;2024-02-04T03:54:42;13.10;;;8.20;;
84031;SDS011;74113;46.556;24.570;2024-02-04T03:57:11;14.60;;;6.90;;
84031;SDS011;74113;46.556;24.570;2024-02-04T03:59:39;14.30;;;7.50;;
84031;SDS011;74113;46.556;24.570;2024-02-04T04:02:08;13.00;;;7.20;;
84031;SDS011;74113;46.556;24.570;2024-02-04T04:04:36;12.00;;;6.70;;
84031;SDS011;74113;46.556;24.570;2024-02-04T04:07:10;16.50;;;8.10;;
84031;SDS011;74113;46.556;24.570;2024-02-04T04:09:38;12.30;;;6.60;;
84031;SDS011;74113;46.556;24.570;2024-02-04T04:12:07;12.40;;;8.30;;
84031;SDS011;74113;46.556;24.570;2024-02-04T04:17:04;12.40;;;6.80;;
84031;SDS011;74113;46.556;24.570;2024-02-04T04:22:04;15.90;;;9.00;;
84031;SDS011;74113;46.556;24.570;2024-02-04T04:24:32;15.00;;;8.50;;
84031;SDS011;74113;46.556;24.570;2024-02-04T04:29:29;14.70;;;8.70;;
84031;SDS011;74113;46.556;24.570;2024-02-04T04:34:26;14.30;;;7.10;;
84031;SDS011;74113;46.556;24.570;2024-02-04T04:39:23;12.60;;;7.30;;
84031;SDS011;74113;46.556;24.570;2024-02-04T04:41:51;16.80;;;8.50;;
84031;SDS011;74113;46.556;24.570;2024-02-04T04:46:48;18.10;;;10.00;;
84031;SDS011;74113;46.556;24.570;2024-02-04T04:49:16;15.80;;;7.90;;
84031;SDS011;74113;46.556;24.570;2024-02-04T04:51:45;15.50;;;8.20;;
84031;SDS011;74113;46.556;24.570;2024-02-04T04:54:17;13.90;;;7.60;;
84031;SDS011;74113;46.556;24.570;2024-02-04T04:56:45;13.90;;;8.60;;
84031;SDS011;74113;46.556;24.570;2024-02-04T04:59:15;15.10;;;10.10;;
84031;SDS011;74113;46.556;24.570;2024-02-04T05:01:49;12.50;;;6.90;;
84031;SDS011;74113;46.556;24.570;2024-02-04T05:04:18;13.90;;;7.40;;
84031;SDS011;74113;46.556;24.570;2024-02-04T05:06:47;15.60;;;9.30;;
84031;SDS011;74113;46.556;24.570;2024-02-04T05:09:16;15.80;;;9.40;;
84031;SDS011;74113;46.556;24.570;2024-02-04T05:11:45;19.10;;;11.00;;
84031;SDS011;74113;46.556;24.570;2024-02-04T05:16:42;14.10;;;7.70;;
84031;SDS011;74113;46.556;24.570;2024-02-04T05:19:12;15.50;;;9.50;;
84031;SDS011;74113;46.556;24.570;2024-02-04T05:21:40;15.70;;;7.70;;
84031;SDS011;74113;46.556;24.570;2024-02-04T05:26:37;22.00;;;10.60;;
84031;SDS011;74113;46.556;24.570;2024-02-04T05:31:39;13.30;;;7.80;;
84031;SDS011;74113;46.556;24.570;2024-02-04T05:34:10;13.90;;;7.50;;
84031;SDS011;74113;46.556;24.570;2024-02-04T05:36:38;14.10;;;8.40;;
84031;SDS011;74113;46.556;24.570;2024-02-04T05:39:15;12.50;;;6.90;;
84031;SDS011;74113;46.556;24.570;2024-02-04T05:41:44;18.70;;;11.80;;
84031;SDS011;74113;46.556;24.570;2024-02-04T05:44:13;15.00;;;7.10;;
84031;SDS011;74113;46.556;24.570;2024-02-04T05:46:41;17.90;;;8.60;;
84031;SDS011;74113;46.556;24.570;2024-02-04T05:49:10;18.40;;;9.60;;
84031;SDS011;74113;46.556;24.570;2024-02-04T05:51:39;18.30;;;11.20;;
84031;SDS011;74113;46.556;24.570;2024-02-04T05:54:09;17.10;;;9.50;;
84031;SDS011;74113;46.556;24.570;2024-02-04T05:56:38;17.40;;;8.30;;
84031;SDS011;74113;46.556;24.570;2024-02-04T05:59:07;16.10;;;8.30;;
84031;SDS011;74113;46.556;24.570;2024-02-04T06:04:03;19.20;;;12.10;;
84031;SDS011;74113;46.556;24.570;2024-02-04T06:06:33;17.10;;;9.60;;
84031;SDS011;74113;46.556;24.570;2024-02-04T06:09:01;17.30;;;8.50;;
84031;SDS011;74113;46.556;24.570;2024-02-04T06:11:30;14.80;;;7.90;;
84031;SDS011;74113;46.556;24.570;2024-02-04T06:13:59;14.40;;;8.50;;
84031;SDS011;74113;46.556;24.570;2024-02-04T06:16:27;15.50;;;8.50;;
84031;SDS011;74113;46.556;24.570;2024-02-04T06:18:56;13.00;;;8.50;;
84031;SDS011;74113;46.556;24.570;2024-02-04T06:21:26;19.40;;;10.60;;
84031;SDS011;74113;46.556;24.570;2024-02-04T06:26:23;17.80;;;8.80;;
84031;SDS011;74113;46.556;24.570;2024-02-04T06:28:52;17.30;;;9.10;;
84031;SDS011;74113;46.556;24.570;2024-02-04T06:31:20;19.30;;;10.40;;
84031;SDS011;74113;46.556;24.570;2024-02-04T06:33:49;16.10;;;7.90;;
84031;SDS011;74113;46.556;24.570;2024-02-04T06:36:18;10.60;;;6.50;;
84031;SDS011;74113;46.556;24.570;2024-02-04T06:38:46;14.00;;;7.80;;
84031;SDS011;74113;46.556;24.570;2024-02-04T06:41:14;16.10;;;8.40;;
84031;SDS011;74113;46.556;24.570;2024-02-04T06:43:43;14.80;;;9.10;;
84031;SDS011;74113;46.556;24.570;2024-02-04T06:46:11;16.80;;;10.40;;
84031;SDS011;74113;46.556;24.570;2024-02-04T06:48:40;11.70;;;6.50;;
84031;SDS011;74113;46.556;24.570;2024-02-04T06:51:08;14.30;;;8.60;;
84031;SDS011;74113;46.556;24.570;2024-02-04T06:53:37;14.40;;;8.50;;
84031;SDS011;74113;46.556;24.570;2024-02-04T06:58:38;16.90;;;8.30;;
84031;SDS011;74113;46.556;24.570;2024-02-04T07:01:07;12.50;;;7.40;;
84031;SDS011;74113;46.556;24.570;2024-02-04T07:03:36;18.10;;;9.30;;
84031;SDS011;74113;46.556;24.570;2024-02-04T07:06:04;15.60;;;9.70;;
84031;SDS011;74113;46.556;24.570;2024-02-04T07:08:33;16.20;;;9.70;;
84031;SDS011;74113;46.556;24.570;2024-02-04T07:13:31;14.00;;;7.50;;
84031;SDS011;74113;46.556;24.570;2024-02-04T07:18:28;14.70;;;9.10;;
84031;SDS011;74113;46.556;24.570;2024-02-04T07:20:57;18.50;;;9.80;;
84031;SDS011;74113;46.556;24.570;2024-02-04T07:23:25;18.70;;;10.50;;
84031;SDS011;74113;46.556;24.570;2024-02-04T07:25:54;15.90;;;9.80;;
84031;SDS011;74113;46.556;24.570;2024-02-04T07:28:22;18.90;;;9.50;;
84031;SDS011;74113;46.556;24.570;2024-02-04T07:30:51;15.70;;;11.00;;
84031;SDS011;74113;46.556;24.570;2024-02-04T07:33:19;15.80;;;9.30;;
84031;SDS011;74113;46.556;24.570;2024-02-04T07:35:49;19.30;;;10.10;;
84031;SDS011;74113;46.556;24.570;2024-02-04T07:38:17;16.40;;;9.10;;
84031;SDS011;74113;46.556;24.570;2024-02-04T07:40:46;15.50;;;9.30;;
84031;SDS011;74113;46.556;24.570;2024-02-04T07:43:15;19.20;;;11.20;;
84031;SDS011;74113;46.556;24.570;2024-02-04T07:45:43;14.30;;;8.80;;
84031;SDS011;74113;46.556;24.570;2024-02-04T07:48:12;15.60;;;8.60;;
84031;SDS011;74113;46.556;24.570;2024-02-04T07:50:41;13.30;;;10.10;;
84031;SDS011;74113;46.556;24.570;2024-02-04T07:53:10;16.80;;;8.90;;
84031;SDS011;74113;46.556;24.570;2024-02-04T07:55:38;20.30;;;11.00;;
84031;SDS011;74113;46.556;24.570;2024-02-04T07:58:07;18.50;;;9.90;;
84031;SDS011;74113;46.556;24.570;2024-02-04T08:00:36;17.90;;;8.50;;
84031;SDS011;74113;46.556;24.570;2024-02-04T08:03:04;15.60;;;8.50;;
84031;SDS011;74113;46.556;24.570;2024-02-04T08:05:33;14.70;;;8.20;;
84031;SDS011;74113;46.556;24.570;2024-02-04T08:08:03;22.10;;;11.90;;
84031;SDS011;74113;46.556;24.570;2024-02-04T08:10:32;15.20;;;12.20;;
84031;SDS011;74113;46.556;24.570;2024-02-04T08:13:01;15.60;;;8.40;;
84031;SDS011;74113;46.556;24.570;2024-02-04T08:15:29;15.10;;;9.10;;
84031;SDS011;74113;46.556;24.570;2024-02-04T08:17:58;14.80;;;8.90;;
84031;SDS011;74113;46.556;24.570;2024-02-04T08:20:27;16.30;;;10.30;;
84031;SDS011;74113;46.556;24.570;2024-02-04T08:22:56;16.90;;;9.40;;
84031;SDS011;74113;46.556;24.570;2024-02-04T08:25:24;13.50;;;7.80;;
84031;SDS011;74113;46.556;24.570;2024-02-04T08:27:54;18.00;;;8.60;;
84031;SDS011;74113;46.556;24.570;2024-02-04T08:30:26;19.40;;;11.70;;
84031;SDS011;74113;46.556;24.570;2024-02-04T08:32:55;24.60;;;13.30;;
84031;SDS011;74113;46.556;24.570;2024-02-04T08:35:23;17.10;;;10.20;;
84031;SDS011;74113;46.556;24.570;2024-02-04T08:37:52;16.60;;;8.50;;
84031;SDS011;74113;46.556;24.570;2024-02-04T08:40:21;15.10;;;8.40;;
84031;SDS011;74113;46.556;24.570;2024-02-04T08:42:50;15.40;;;8.60;;
84031;SDS011;74113;46.556;24.570;2024-02-04T08:45:19;19.00;;;9.20;;
84031;SDS011;74113;46.556;24.570;2024-02-04T08:47:47;13.90;;;7.50;;
84031;SDS011;74113;46.556;24.570;2024-02-04T08:50:16;15.00;;;8.40;;
84031;SDS011;74113;46.556;24.570;2024-02-04T08:52:44;20.20;;;8.80;;
84031;SDS011;74113;46.556;24.570;2024-02-04T08:55:13;12.50;;;7.50;;
84031;SDS011;74113;46.556;24.570;2024-02-04T08:57:42;16.10;;;9.10;;
84031;SDS011;74113;46.556;24.570;2024-02-04T09:00:10;10.60;;;6.50;;
84031;SDS011;74113;46.556;24.570;2024-02-04T09:02:42;13.80;;;7.30;;
84031;SDS011;74113;46.556;24.570;2024-02-04T09:05:11;13.00;;;7.20;;
84031;SDS011;74113;46.556;24.570;2024-02-04T09:07:39;13.60;;;9.50;;
84031;SDS011;74113;46.556;24.570;2024-02-04T09:10:08;13.80;;;7.80;;
84031;SDS011;74113;46.556;24.570;2024-02-04T09:12:37;17.70;;;11.20;;
84031;SDS011;74113;46.556;24.570;2024-02-04T09:15:06;17.70;;;8.50;;
84031;SDS011;74113;46.556;24.570;2024-02-04T09:17:37;18.60;;;10.70;;
84031;SDS011;74113;46.556;24.570;2024-02-04T09:20:06;16.20;;;9.20;;
84031;SDS011;74113;46.556;24.570;2024-02-04T09:22:37;15.70;;;8.60;;
84031;SDS011;74113;46.556;24.570;2024-02-04T09:25:07;14.10;;;8.10;;
84031;SDS011;74113;46.556;24.570;2024-02-04T09:27:37;16.40;;;9.70;;
84031;SDS011;74113;46.556;24.570;2024-02-04T09:30:05;17.10;;;9.90;;
84031;SDS011;74113;46.556;24.570;2024-02-04T09:32:34;14.10;;;9.00;;
84031;SDS011;74113;46.556;24.570;2024-02-04T09:35:04;16.00;;;9.30;;
84031;SDS011;74113;46.556;24.570;2024-02-04T09:37:33;14.00;;;7.80;;
84031;SDS011;74113;46.556;24.570;2024-02-04T09:40:02;13.20;;;7.90;;
84031;SDS011;74113;46.556;24.570;2024-02-04T09:42:33;13.80;;;8.50;;
84031;SDS011;74113;46.556;24.570;2024-02-04T09:45:02;13.40;;;8.30;;
84031;SDS011;74113;46.556;24.570;2024-02-04T09:47:31;15.60;;;10.20;;
84031;SDS011;74113;46.556;24.570;2024-02-04T09:50:03;14.30;;;7.80;;
84031;SDS011;74113;46.556;24.570;2024-02-04T09:52:33;12.30;;;7.60;;
84031;SDS011;74113;46.556;24.570;2024-02-04T09:55:03;13.60;;;7.30;;
84031;SDS011;74113;46.556;24.570;2024-02-04T09:57:34;14.80;;;8.00;;
84031;SDS011;74113;46.556;24.570;2024-02-04T10:00:03;15.00;;;9.40;;
84031;SDS011;74113;46.556;24.570;2024-02-04T10:02:38;15.50;;;10.00;;
84031;SDS011;74113;46.556;24.570;2024-02-04T10:05:09;11.10;;;6.60;;
84031;SDS011;74113;46.556;24.570;2024-02-04T10:07:39;14.20;;;9.20;;
84031;SDS011;74113;46.556;24.570;2024-02-04T10:10:08;11.10;;;6.90;;
84031;SDS011;74113;46.556;24.570;2024-02-04T10:12:38;10.20;;;5.80;;
84031;SDS011;74113;46.556;24.570;2024-02-04T10:15:07;9.50;;;5.60;;
84031;SDS011;74113;46.556;24.570;2024-02-04T10:17:36;11.40;;;6.10;;
84031;SDS011;74113;46.556;24.570;2024-02-04T10:20:05;11.00;;;6.60;;
84031;SDS011;74113;46.556;24.570;2024-02-04T10:22:34;13.70;;;8.10;;
84031;SDS011;74113;46.556;24.570;2024-02-04T10:25:06;13.90;;;7.00;;
84031;SDS011;74113;46.556;24.570;2024-02-04T10:27:36;15.90;;;12.60;;
84031;SDS011;74113;46.556;24.570;2024-02-04T10:30:05;13.10;;;7.00;;
84031;SDS011;74113;46.556;24.570;2024-02-04T10:32:35;13.40;;;8.80;;
84031;SDS011;74113;46.556;24.570;2024-02-04T10:35:03;15.20;;;8.40;;
84031;SDS011;74113;46.556;24.570;2024-02-04T10:37:32;15.50;;;9.00;;
84031;SDS011;74113;46.556;24.570;2024-02-04T10:40:01;12.80;;;7.60;;
84031;SDS011;74113;46.556;24.570;2024-02-04T10:42:31;10.00;;;5.70;;
84031;SDS011;74113;46.556;24.570;2024-02-04T10:44:59;12.10;;;7.90;;
84031;SDS011;74113;46.556;24.570;2024-02-04T10:47:30;14.10;;;6.90;;
84031;SDS011;74113;46.556;24.570;2024-02-04T10:50:02;7.40;;;4.10;;
84031;SDS011;74113;46.556;24.570;2024-02-04T10:52:38;10.80;;;5.90;;
84031;SDS011;74113;46.556;24.570;2024-02-04T10:55:10;8.30;;;5.10;;
84031;SDS011;74113;46.556;24.570;2024-02-04T10:57:40;8.80;;;6.10;;
84031;SDS011;74113;46.556;24.570;2024-02-04T11:00:09;11.20;;;6.10;;
84031;SDS011;74113;46.556;24.570;2024-02-04T11:02:40;8.30;;;4.70;;
84031;SDS011;74113;46.556;24.570;2024-02-04T11:05:15;8.10;;;3.70;;
84031;SDS011;74113;46.556;24.570;2024-02-04T11:07:45;9.20;;;6.90;;
84031;SDS011;74113;46.556;24.570;2024-02-04T11:10:14;9.60;;;5.70;;
84031;SDS011;74113;46.556;24.570;2024-02-04T11:12:43;12.90;;;8.00;;
84031;SDS011;74113;46.556;24.570;2024-02-04T11:15:14;15.10;;;8.20;;
84031;SDS011;74113;46.556;24.570;2024-02-04T11:26:05;7.40;;;4.20;;
84031;SDS011;74113;46.556;24.570;2024-02-04T11:28:34;8.30;;;4.20;;
84031;SDS011;74113;46.556;24.570;2024-02-04T11:31:04;6.80;;;3.40;;
84031;SDS011;74113;46.556;24.570;2024-02-04T11:33:41;5.50;;;3.40;;
84031;SDS011;74113;46.556;24.570;2024-02-04T11:36:13;6.30;;;3.40;;
84031;SDS011;74113;46.556;24.570;2024-02-04T11:38:43;6.00;;;3.20;;
84031;SDS011;74113;46.556;24.570;2024-02-04T11:41:23;6.10;;;3.50;;
84031;SDS011;74113;46.556;24.570;2024-02-04T11:43:57;5.80;;;3.20;;
84031;SDS011;74113;46.556;24.570;2024-02-04T11:46:32;6.10;;;3.00;;
84031;SDS011;74113;46.556;24.570;2024-02-04T11:49:02;5.60;;;3.20;;
84031;SDS011;74113;46.556;24.570;2024-02-04T11:51:31;3.70;;;1.60;;
84031;SDS011;74113;46.556;24.570;2024-02-04T11:54:00;4.40;;;2.50;;
84031;SDS011;74113;46.556;24.570;2024-02-04T11:56:33;4.80;;;2.40;;
84031;SDS011;74113;46.556;24.570;2024-02-04T11:59:04;5.70;;;3.10;;
84031;SDS011;74113;46.556;24.570;2024-02-04T12:01:35;4.70;;;2.70;;
84031;SDS011;74113;46.556;24.570;2024-02-04T12:04:09;4.60;;;2.10;;
84031;SDS011;74113;46.556;24.570;2024-02-04T12:06:42;5.80;;;2.50;;
84031;SDS011;74113;46.556;24.570;2024-02-04T12:09:12;4.40;;;2.50;;
84031;SDS011;74113;46.556;24.570;2024-02-04T12:11:46;4.80;;;2.80;;
84031;SDS011;74113;46.556;24.570;2024-02-04T12:14:15;5.90;;;3.00;;
84031;SDS011;74113;46.556;24.570;2024-02-04T12:16:45;6.30;;;3.60;;
84031;SDS011;74113;46.556;24.570;2024-02-04T12:19:15;5.90;;;2.90;;
84031;SDS011;74113;46.556;24.570;2024-02-04T12:21:44;6.10;;;2.20;;
84031;SDS011;74113;46.556;24.570;2024-02-04T12:24:12;3.30;;;1.70;;
84031;SDS011;74113;46.556;24.570;2024-02-04T12:26:42;4.40;;;1.40;;
84031;SDS011;74113;46.556;24.570;2024-02-04T12:29:13;3.20;;;1.30;;
84031;SDS011;74113;46.556;24.570;2024-02-04T12:31:42;2.90;;;1.40;;
84031;SDS011;74113;46.556;24.570;2024-02-04T12:34:12;3.90;;;1.80;;
84031;SDS011;74113;46.556;24.570;2024-02-04T12:36:41;2.60;;;1.70;;
84031;SDS011;74113;46.556;24.570;2024-02-04T12:39:13;4.10;;;1.50;;
84031;SDS011;74113;46.556;24.570;2024-02-04T12:41:42;3.60;;;1.80;;
84031;SDS011;74113;46.556;24.570;2024-02-04T12:44:11;7.20;;;3.90;;
84031;SDS011;74113;46.556;24.570;2024-02-04T12:46:39;4.80;;;2.40;;
84031;SDS011;74113;46.556;24.570;2024-02-04T12:49:08;4.50;;;2.30;;
84031;SDS011;74113;46.556;24.570;2024-02-04T12:51:36;4.90;;;1.60;;
84031;SDS011;74113;46.556;24.570;2024-02-04T12:54:07;4.20;;;2.20;;
84031;SDS011;74113;46.556;24.570;2024-02-04T12:56:47;4.40;;;2.70;;
84031;SDS011;74113;46.556;24.570;2024-02-04T12:59:25;2.60;;;1.10;;
84031;SDS011;74113;46.556;24.570;2024-02-04T13:02:03;3.70;;;1.50;;
84031;SDS011;74113;46.556;24.570;2024-02-04T13:04:35;3.30;;;1.50;;
84031;SDS011;74113;46.556;24.570;2024-02-04T13:07:11;4.60;;;2.10;;
84031;SDS011;74113;46.556;24.570;2024-02-04T13:09:43;2.80;;;1.10;;
84031;SDS011;74113;46.556;24.570;2024-02-04T13:14:45;4.50;;;2.10;;
84031;SDS011;74113;46.556;24.570;2024-02-04T13:17:15;3.80;;;1.80;;
84031;SDS011;74113;46.556;24.570;2024-02-04T13:19:45;3.90;;;1.80;;
84031;SDS011;74113;46.556;24.570;2024-02-04T13:22:15;3.40;;;1.60;;
84031;SDS011;74113;46.556;24.570;2024-02-04T13:24:45;4.00;;;1.80;;
84031;SDS011;74113;46.556;24.570;2024-02-04T13:27:15;4.10;;;2.20;;
84031;SDS011;74113;46.556;24.570;2024-02-04T13:29:49;4.20;;;1.70;;
84031;SDS011;74113;46.556;24.570;2024-02-04T13:32:18;5.40;;;2.30;;
84031;SDS011;74113;46.556;24.570;2024-02-04T13:34:46;4.10;;;1.90;;
84031;SDS011;74113;46.556;24.570;2024-02-04T13:37:23;4.90;;;2.40;;
84031;SDS011;74113;46.556;24.570;2024-02-04T13:39:52;4.20;;;2.10;;
84031;SDS011;74113;46.556;24.570;2024-02-04T13:42:21;6.00;;;4.40;;
84031;SDS011;74113;46.556;24.570;2024-02-04T13:44:50;8.70;;;4.80;;
84031;SDS011;74113;46.556;24.570;2024-02-04T13:47:19;10.70;;;7.40;;
84031;SDS011;74113;46.556;24.570;2024-02-04T13:49:49;10.20;;;5.20;;
84031;SDS011;74113;46.556;24.570;2024-02-04T13:52:18;15.00;;;9.70;;
84031;SDS011;74113;46.556;24.570;2024-02-04T13:54:47;12.80;;;9.80;;
84031;SDS011;74113;46.556;24.570;2024-02-04T13:57:16;12.80;;;7.10;;
84031;SDS011;74113;46.556;24.570;2024-02-04T13:59:45;13.20;;;8.40;;
84031;SDS011;74113;46.556;24.570;2024-02-04T14:02:15;15.50;;;8.80;;
84031;SDS011;74113;46.556;24.570;2024-02-04T14:04:43;13.00;;;8.00;;
84031;SDS011;74113;46.556;24.570;2024-02-04T14:07:12;12.00;;;7.90;;
84031;SDS011;74113;46.556;24.570;2024-02-04T14:09:41;18.00;;;11.80;;
84031;SDS011;74113;46.556;24.570;2024-02-04T14:12:10;11.40;;;6.40;;
84031;SDS011;74113;46.556;24.570;2024-02-04T14:14:41;13.20;;;9.10;;
84031;SDS011;74113;46.556;24.570;2024-02-04T14:17:11;10.40;;;6.90;;
84031;SDS011;74113;46.556;24.570;2024-02-04T14:19:40;7.40;;;5.20;;
84031;SDS011;74113;46.556;24.570;2024-02-04T14:22:10;4.50;;;3.10;;
84031;SDS011;74113;46.556;24.570;2024-02-04T14:24:38;4.60;;;2.00;;
84031;SDS011;74113;46.556;24.570;2024-02-04T14:27:07;3.00;;;1.50;;
84031;SDS011;74113;46.556;24.570;2024-02-04T14:29:38;3.30;;;1.30;;
84031;SDS011;74113;46.556;24.570;2024-02-04T14:32:06;2.60;;;0.90;;
84031;SDS011;74113;46.556;24.570;2024-02-04T14:34:36;3.30;;;1.30;;
84031;SDS011;74113;46.556;24.570;2024-02-04T14:37:05;3.00;;;1.90;;
84031;SDS011;74113;46.556;24.570;2024-02-04T14:39:40;4.50;;;1.70;;
84031;SDS011;74113;46.556;24.570;2024-02-04T14:42:09;3.00;;;1.40;;
84031;SDS011;74113;46.556;24.570;2024-02-04T14:44:38;4.40;;;2.10;;
84031;SDS011;74113;46.556;24.570;2024-02-04T14:47:07;2.90;;;1.20;;
84031;SDS011;74113;46.556;24.570;2024-02-04T14:49:36;3.30;;;2.20;;
84031;SDS011;74113;46.556;24.570;2024-02-04T14:52:06;3.30;;;2.00;;
84031;SDS011;74113;46.556;24.570;2024-02-04T14:54:35;4.50;;;1.70;;
84031;SDS011;74113;46.556;24.570;2024-02-04T14:57:05;3.40;;;1.30;;
84031;SDS011;74113;46.556;24.570;2024-02-04T14:59:33;4.10;;;1.50;;
84031;SDS011;74113;46.556;24.570;2024-02-04T15:02:05;3.60;;;3.00;;
84031;SDS011;74113;46.556;24.570;2024-02-04T15:04:35;2.20;;;1.10;;
84031;SDS011;74113;46.556;24.570;2024-02-04T15:07:03;2.70;;;1.00;;
84031;SDS011;74113;46.556;24.570;2024-02-04T15:09:32;3.20;;;1.10;;
84031;SDS011;74113;46.556;24.570;2024-02-04T15:12:01;1.60;;;0.80;;
84031;SDS011;74113;46.556;24.570;2024-02-04T15:14:30;2.30;;;1.10;;
84031;SDS011;74113;46.556;24.570;2024-02-04T15:16:59;2.00;;;1.10;;
84031;SDS011;74113;46.556;24.570;2024-02-04T15:19:29;1.80;;;1.50;;
84031;SDS011;74113;46.556;24.570;2024-02-04T15:21:58;1.40;;;0.40;;
84031;SDS011;74113;46.556;24.570;2024-02-04T15:24:27;4.20;;;1.40;;
84031;SDS011;74113;46.556;24.570;2024-02-04T15:26:57;1.90;;;0.90;;
84031;SDS011;74113;46.556;24.570;2024-02-04T15:29:33;2.50;;;1.00;;
84031;SDS011;74113;46.556;24.570;2024-02-04T15:32:04;4.10;;;3.50;;
84031;SDS011;74113;46.556;24.570;2024-02-04T15:34:33;2.50;;;1.10;;
84031;SDS011;74113;46.556;24.570;2024-02-04T15:37:03;2.30;;;1.00;;